Time;durP1;ratioP1;P1;durP2;ratioP2;P2;SDS_P1;SDS_P2;PMS_P1;PMS_P2;Temp;Humidity;BMP_temperature;BMP_pressure;BME280_temperature;BME280_humidity;BME280_pressure;Samples;Min_cycle;Max_cycle;Signal;HPM_P1;HPM_P2
2022/08/15 00:00:33;;;;;;;4.87;3.90;;;;;;;22.68;57.41;100192.59;5035647;28;20018;-88
2022/08/15 00:02:58;;;;;;;3.75;3.35;;;;;;;22.67;57.47;100195.34;5035993;28;20497;-88
2022/08/15 00:05:24;;;;;;;3.75;3.35;;;;;;;22.67;57.66;100211.22;5036432;28;20045;-88
2022/08/15 00:07:50;;;;;;;3.53;3.20;;;;;;;22.64;57.62;100196.41;5035371;28;20080;-87
2022/08/15 00:10:18;;;;;;;3.85;3.38;;;;;;;22.61;57.50;100198.47;5036361;28;20026;-87
2022/08/15 00:12:44;;;;;;;3.85;3.45;;;;;;;22.60;57.55;100205.56;5035156;28;20042;-88
2022/08/15 00:15:13;;;;;;;3.90;3.33;;;;;;;22.58;57.90;100209.25;5035229;28;20493;-87
2022/08/15 00:17:40;;;;;;;3.50;3.20;;;;;;;22.54;57.92;100205.19;5035813;28;20021;-87
2022/08/15 00:20:08;;;;;;;3.40;3.10;;;;;;;22.49;58.59;100206.38;5035730;28;20087;-88
2022/08/15 00:22:34;;;;;;;3.30;3.00;;;;;;;22.43;58.30;100204.19;5035244;28;20036;-87
2022/08/15 00:25:00;;;;;;;3.17;2.88;;;;;;;22.39;59.09;100196.59;5034965;28;20108;-87
2022/08/15 00:27:25;;;;;;;3.30;3.00;;;;;;;22.35;58.13;100199.44;5035715;28;20116;-88
2022/08/15 00:29:51;;;;;;;3.53;3.10;;;;;;;22.34;58.12;100205.69;5034532;28;20120;-87
2022/08/15 00:32:23;;;;;;;3.28;2.97;;;;;;;22.33;58.20;100204.00;5035854;28;20644;-87
2022/08/15 00:35:01;;;;;;;2.83;2.60;;;;;;;22.27;58.38;100200.97;5034174;28;20038;-87
2022/08/15 00:37:33;;;;;;;2.95;2.70;;;;;;;22.25;58.23;100198.47;5034508;28;20021;-88
2022/08/15 00:40:04;;;;;;;2.90;2.70;;;;;;;22.21;57.96;100202.28;5034321;28;20034;-87
2022/08/15 00:42:30;;;;;;;2.80;2.60;;;;;;;22.20;58.21;100203.22;5014884;28;20363;-88
2022/08/15 00:44:57;;;;;;;2.80;2.50;;;;;;;22.18;58.02;100203.34;5015169;28;20032;-87
2022/08/15 00:47:23;;;;;;;2.67;2.47;;;;;;;22.17;57.90;100200.84;5015610;28;20421;-88
2022/08/15 00:49:48;;;;;;;2.70;2.50;;;;;;;22.16;58.13;100202.63;5015169;28;20026;-87
2022/08/15 00:52:19;;;;;;;2.73;2.53;;;;;;;22.15;58.48;100195.66;5015544;28;20060;-88
2022/08/15 00:54:47;;;;;;;3.45;2.70;;;;;;;22.14;58.05;100190.50;5015334;28;20378;-88
2022/08/15 00:57:36;;;;;;;3.08;2.67;;;;;;;22.12;58.60;100195.03;5014242;28;20474;-87
2022/08/15 01:00:26;;;;;;;3.30;3.00;;;;;;;22.09;58.26;100205.84;5014820;28;20475;-87
2022/08/15 01:02:54;;;;;;;3.33;3.03;;;;;;;22.05;58.17;100206.09;5014855;28;20425;-88
2022/08/15 01:05:20;;;;;;;3.30;3.00;;;;;;;22.01;58.37;100204.59;5014782;28;20018;-88
2022/08/15 01:07:46;;;;;;;3.28;2.95;;;;;;;21.96;60.78;100196.16;5016624;28;20033;-88
2022/08/15 01:10:12;;;;;;;2.85;2.58;;;;;;;21.93;59.65;100204.34;5014911;28;20108;-87
2022/08/15 01:12:39;;;;;;;2.90;2.60;;;;;;;21.88;59.30;100199.41;5014504;28;20042;-88
2022/08/15 01:15:10;;;;;;;3.30;3.00;;;;;;;21.85;58.77;100198.75;5014807;28;20049;-88
2022/08/15 01:17:36;;;;;;;2.92;2.70;;;;;;;21.81;59.16;100203.41;5014784;28;20045;-88
2022/08/15 01:20:12;;;;;;;3.35;2.80;;;;;;;21.78;59.41;100197.53;5014467;28;20079;-87
2022/08/15 01:22:47;;;;;;;;;;;;;;;21.74;60.18;100189.81;5015371;28;20558;-88
2022/08/15 01:25:17;;;;;;;2.70;2.50;;;;;;;21.71;59.02;100198.00;5014130;28;19913;-88
2022/08/15 01:27:52;;;;;;;3.05;2.65;;;;;;;21.69;58.90;100193.75;5014688;28;20040;-88
2022/08/15 01:30:22;;;;;;;2.85;2.65;;;;;;;21.69;59.18;100191.09;5014565;28;20497;-88
2022/08/15 01:32:47;;;;;;;2.50;2.30;;;;;;;21.67;58.79;100196.50;5015466;28;20030;-87
2022/08/15 01:35:13;;;;;;;3.10;2.80;;;;;;;21.65;58.83;100195.78;5034291;28;20028;-87
2022/08/15 01:37:39;;;;;;;;;;;;;;;21.63;59.30;100200.31;5033653;28;20493;-88
2022/08/15 01:40:25;;;;;;;;;;;;;;;21.63;58.50;100202.97;5033965;28;19949;-88
2022/08/15 01:42:53;;;;;;;3.28;2.92;;;;;;;21.62;58.83;100187.25;5033693;28;19919;-87
2022/08/15 01:45:21;;;;;;;2.97;2.70;;;;;;;21.59;58.88;100181.22;5034311;28;20036;-87
2022/08/15 01:47:52;;;;;;;2.63;2.42;;;;;;;21.57;58.70;100188.38;5033770;28;20044;-88
2022/08/15 01:50:24;;;;;;;2.55;2.35;;;;;;;21.55;58.53;100192.09;5034241;28;20025;-87
2022/08/15 01:52:59;;;;;;;2.60;2.40;;;;;;;21.53;58.24;100199.25;5033145;28;20064;-87
2022/08/15 01:55:32;;;;;;;3.80;2.72;;;;;;;21.48;59.38;100201.41;5034024;28;20073;-88
2022/08/15 01:57:58;;;;;;;2.65;2.45;;;;;;;21.43;58.13;100199.94;5028872;28;20104;-87
2022/08/15 02:00:23;;;;;;;3.00;2.70;;;;;;;21.42;57.87;100202.69;5013737;28;20113;-87
2022/08/15 02:02:48;;;;;;;2.50;2.30;;;;;;;21.39;58.19;100208.19;5015451;28;20037;-87
2022/08/15 02:05:14;;;;;;;2.50;2.30;;;;;;;21.35;58.04;100201.41;5033746;28;20385;-88
2022/08/15 02:07:40;;;;;;;2.17;2.00;;;;;;;21.29;57.77;100200.91;5033358;28;20040;-87
2022/08/15 02:10:06;;;;;;;3.00;2.70;;;;;;;21.25;57.17;100190.69;5033964;28;20029;-87
2022/08/15 02:12:35;;;;;;;2.60;2.40;;;;;;;21.23;57.05;100198.69;5033054;28;20042;-88
2022/08/15 02:15:12;;;;;;;2.40;2.20;;;;;;;21.21;56.58;100205.03;5033397;28;20104;-88
2022/08/15 02:17:38;;;;;;;2.63;2.40;;;;;;;21.19;56.24;100202.53;5041357;28;20036;-87
2022/08/15 02:20:04;;;;;;;2.53;2.20;;;;;;;21.16;56.29;100199.25;5033615;28;20458;-87
2022/08/15 02:22:29;;;;;;;2.08;1.98;;;;;;;21.14;55.95;100191.44;5033349;28;20025;-87
2022/08/15 02:24:57;;;;;;;2.67;2.47;;;;;;;21.14;55.71;100201.97;5033538;28;20032;-87
2022/08/15 02:27:24;;;;;;;2.38;2.17;;;;;;;21.13;55.64;100197.66;5033577;28;20052;-88
2022/08/15 02:30:13;;;;;;;2.35;2.15;;;;;;;21.13;55.33;100201.16;5030849;28;20045;-87
2022/08/15 02:32:39;;;;;;;2.00;1.90;;;;;;;21.11;55.26;100195.13;5033347;28;20018;-87
2022/08/15 02:35:17;;;;;;;2.10;2.00;;;;;;;21.09;54.76;100197.03;5032533;28;20085;-87
2022/08/15 02:37:45;;;;;;;1.77;1.67;;;;;;;21.10;55.25;100195.25;5033561;28;20036;-88
2022/08/15 02:40:14;;;;;;;1.80;1.70;;;;;;;21.06;54.32;100194.59;5032928;28;20026;-87
2022/08/15 02:42:42;;;;;;;1.70;1.60;;;;;;;21.06;54.68;100204.31;5033119;28;20045;-87
2022/08/15 02:45:16;;;;;;;1.90;1.80;;;;;;;21.03;54.08;100199.25;5032897;28;20091;-87
2022/08/15 02:47:43;;;;;;;1.80;1.70;;;;;;;21.01;54.57;100199.38;5033143;28;20029;-88
2022/08/15 02:50:12;;;;;;;1.73;1.63;;;;;;;21.00;54.46;100208.22;5032695;28;20441;-87
2022/08/15 02:52:53;;;;;;;1.55;1.45;;;;;;;21.00;54.56;100212.69;5033238;28;20025;-87
2022/08/15 02:55:19;;;;;;;1.50;1.40;;;;;;;20.97;54.12;100213.72;5029600;28;20359;-88
2022/08/15 02:57:45;;;;;;;1.40;1.30;;;;;;;20.94;54.79;100216.59;5030989;28;20032;-87
2022/08/15 03:00:26;;;;;;;1.35;1.35;;;;;;;20.91;54.26;100214.16;5033140;28;20025;-87
2022/08/15 03:03:14;;;;;;;1.25;1.25;;;;;;;20.91;54.33;100214.16;5033177;28;20025;-87
2022/08/15 03:05:44;;;;;;;1.80;1.70;;;;;;;20.88;54.05;100207.31;5033490;28;20021;-89
2022/08/15 03:08:09;;;;;;;1.60;1.50;;;;;;;20.87;54.33;100205.63;5032785;28;20026;-87
2022/08/15 03:10:37;;;;;;;1.60;1.50;;;;;;;20.88;54.44;100207.31;5033157;28;20385;-87
2022/08/15 03:13:20;;;;;;;1.60;1.50;;;;;;;20.82;54.22;100194.53;5031969;28;20042;-87
2022/08/15 03:15:56;;;;;;;1.70;1.60;;;;;;;20.80;54.29;100197.28;5036291;28;20079;-88
2022/08/15 03:18:24;;;;;;;1.48;1.40;;;;;;;20.76;54.55;100195.78;5034906;28;20045;-88
2022/08/15 03:20:53;;;;;;;1.27;1.27;;;;;;;20.76;54.41;100201.06;5032606;28;20029;-87
2022/08/15 03:23:20;;;;;;;1.40;1.40;;;;;;;20.72;54.33;100209.25;5032289;28;20029;-88
2022/08/15 03:26:03;;;;;;;1.60;1.50;;;;;;;20.68;54.80;100213.91;5032734;28;20025;-87
2022/08/15 03:28:31;;;;;;;1.40;1.40;;;;;;;20.64;54.41;100215.03;5032866;28;20061;-91
2022/08/15 03:30:58;;;;;;;2.38;2.10;;;;;;;20.59;54.41;100211.88;5032872;28;20024;-88
2022/08/15 03:33:24;;;;;;;2.20;2.00;;;;;;;20.55;54.41;100211.22;5032648;28;20355;-88
2022/08/15 03:35:50;;;;;;;2.10;2.00;;;;;;;20.49;54.39;100204.56;5032727;28;20032;-87
2022/08/15 03:38:16;;;;;;;2.08;1.88;;;;;;;20.51;54.38;100207.13;5032500;28;20029;-87
2022/08/15 03:40:44;;;;;;;1.75;1.65;;;;;;;20.51;54.16;100201.84;5032893;28;20032;-88
2022/08/15 03:43:13;;;;;;;1.75;1.65;;;;;;;20.50;54.44;100202.81;5032439;28;20100;-88
2022/08/15 03:45:46;;;;;;;1.77;1.67;;;;;;;20.46;54.40;100203.94;5032421;28;20024;-87
2022/08/15 03:48:12;;;;;;;2.30;2.10;;;;;;;20.39;54.39;100200.03;5031854;28;20030;-87
2022/08/15 03:50:37;;;;;;;1.97;1.87;;;;;;;20.34;54.69;100198.56;5032659;28;20144;-92
2022/08/15 03:53:06;;;;;;;2.03;1.93;;;;;;;20.33;54.62;100204.75;5033287;28;20516;-91
2022/08/15 03:55:48;;;;;;;2.10;1.90;;;;;;;20.30;55.19;100207.63;5031021;28;20033;-90
2022/08/15 03:58:14;;;;;;;1.95;1.85;;;;;;;20.28;54.93;100213.91;5032949;28;20049;-90
2022/08/15 04:00:47;;;;;;;1.88;1.77;;;;;;;20.27;54.54;100222.75;5035379;28;20372;-89
2022/08/15 04:03:16;;;;;;;2.00;1.90;;;;;;;20.21;54.80;100219.59;5036344;28;20027;-89
2022/08/15 04:05:44;;;;;;;2.20;1.90;;;;;;;20.18;54.96;100219.81;5036495;28;20034;-84
2022/08/15 04:08:11;;;;;;;1.90;1.80;;;;;;;20.17;55.31;100218.09;5034701;28;20091;-85
2022/08/15 04:10:37;;;;;;;1.90;1.80;;;;;;;20.12;55.01;100222.00;5035319;28;20028;-84
2022/08/15 04:13:06;;;;;;;2.00;1.90;;;;;;;20.10;55.47;100224.72;5034849;28;20049;-84
2022/08/15 04:15:33;;;;;;;1.70;1.60;;;;;;;20.09;55.08;100223.03;5034660;28;20041;-84
2022/08/15 04:17:59;;;;;;;2.15;2.05;;;;;;;20.07;55.33;100224.94;5034776;28;20420;-84
2022/08/15 04:20:24;;;;;;;2.30;2.10;;;;;;;20.06;55.80;100223.22;5034739;28;20025;-84
2022/08/15 04:22:50;;;;;;;2.17;2.00;;;;;;;20.03;56.03;100224.28;5020103;28;20040;-84
2022/08/15 04:25:20;;;;;;;2.42;2.25;;;;;;;20.01;55.98;100225.34;5015439;28;20026;-84
2022/08/15 04:27:51;;;;;;;2.00;1.90;;;;;;;19.99;55.83;100227.22;5014974;28;20385;-84
2022/08/15 04:30:17;;;;;;;2.47;2.28;;;;;;;19.96;56.86;100227.41;5015406;28;20025;-85
2022/08/15 04:32:43;;;;;;;2.75;2.55;;;;;;;19.94;56.02;100227.53;5014035;28;20052;-84
2022/08/15 04:35:10;;;;;;;2.38;2.17;;;;;;;19.97;56.12;100231.75;5014445;28;20034;-84
2022/08/15 04:37:39;;;;;;;2.50;2.30;;;;;;;19.96;56.08;100227.41;5015164;28;20025;-84
2022/08/15 04:40:06;;;;;;;2.33;2.13;;;;;;;19.96;56.17;100230.91;5015194;28;20026;-91
2022/08/15 04:42:32;;;;;;;2.00;1.88;;;;;;;19.98;55.85;100228.16;5015539;28;20100;-88
2022/08/15 04:44:57;;;;;;;1.80;1.70;;;;;;;19.97;56.05;100229.09;5016237;28;20434;-89
2022/08/15 04:47:22;;;;;;;1.90;1.80;;;;;;;19.97;56.66;100237.00;5016454;28;20109;-89
2022/08/15 04:49:48;;;;;;;1.83;1.73;;;;;;;19.97;56.78;100229.97;5015200;28;20050;-88
2022/08/15 04:52:19;;;;;;;1.30;1.30;;;;;;;19.97;56.79;100234.38;5016694;28;20033;-88
2022/08/15 04:54:45;;;;;;;1.38;1.38;;;;;;;19.98;56.88;100233.44;5016749;28;20014;-95
2022/08/15 04:57:12;;;;;;;1.70;1.60;;;;;;;20.00;57.44;100234.19;5013848;28;20109;-94
2022/08/15 04:59:39;;;;;;;2.90;1.65;;;;;;;20.02;58.13;100232.31;5018453;28;20036;-95
2022/08/15 05:02:08;;;;;;;1.80;1.70;;;;;;;20.05;57.43;100242.63;5016780;28;20028;-94
2022/08/15 05:04:34;;;;;;;1.52;1.42;;;;;;;20.08;57.97;100247.69;5015550;28;20022;-96
2022/08/15 05:06:59;;;;;;;1.65;1.55;;;;;;;20.12;56.82;100243.06;5015913;28;20026;-95
2022/08/15 05:09:25;;;;;;;1.60;1.50;;;;;;;20.14;57.77;100249.94;5016239;28;20061;-95
2022/08/15 05:11:50;;;;;;;1.47;1.47;;;;;;;20.17;57.89;100243.63;5015481;28;20048;-96
2022/08/15 05:14:16;;;;;;;1.90;1.80;;;;;;;20.21;58.26;100243.31;5017680;28;20026;-96
2022/08/15 05:16:41;;;;;;;2.10;1.90;;;;;;;20.24;59.31;100247.53;5016639;28;20300;-96
2022/08/15 05:19:07;;;;;;;1.90;1.80;;;;;;;20.26;59.56;100243.00;5015942;28;20034;-96
2022/08/15 05:21:32;;;;;;;3.50;1.90;;;;;;;20.31;58.66;100242.72;5016269;28;20037;-96
2022/08/15 05:23:57;;;;;;;2.47;2.27;;;;;;;20.33;60.90;100238.19;5015673;28;20109;-93
2022/08/15 05:26:23;;;;;;;2.30;2.10;;;;;;;20.36;59.87;100240.63;5015748;28;20034;-95
2022/08/15 05:28:48;;;;;;;2.55;2.28;;;;;;;20.41;60.52;100242.97;5016470;28;20018;-95
2022/08/15 05:31:14;;;;;;;2.23;2.03;;;;;;;20.42;59.24;100255.19;5019760;28;20025;-95
2022/08/15 05:33:42;;;;;;;2.10;2.00;;;;;;;20.44;59.40;100248.00;5017783;28;20042;-94
2022/08/15 05:36:08;;;;;;;3.00;2.20;;;;;;;20.47;59.49;100253.06;5026169;28;20109;-96
2022/08/15 05:38:48;;;;;;;2.10;1.90;;;;;;;20.49;60.62;100256.47;5030854;28;20025;-96
2022/08/15 05:41:32;;;;;;;2.03;1.92;;;;;;;20.52;59.85;100265.00;5037439;28;20033;-90
2022/08/15 05:44:28;;;;;;;2.25;2.05;;;;;;;20.52;59.94;100261.53;5029291;28;20040;-91
2022/08/15 05:47:06;;;;;;;3.47;2.15;;;;;;;20.55;60.30;100260.47;5032347;28;20041;-90
2022/08/15 05:49:55;;;;;;;2.13;1.92;;;;;;;20.57;60.85;100269.13;5016333;28;20060;-93
2022/08/15 05:52:41;;;;;;;2.40;2.08;;;;;;;20.58;60.64;100266.38;5015971;28;20076;-91
2022/08/15 05:58:23;;;;;;;4.40;2.70;;;;;;;20.60;62.06;100274.22;5222429;22;20040;-93
2022/08/15 06:01:02;;;;;;;3.13;2.60;;;;;;;20.61;60.74;100268.81;5519315;22;20058;-95
2022/08/15 06:06:11;;;;;;;2.40;2.10;;;;;;;20.68;60.60;100278.00;5565485;23;20052;-96
2022/08/15 06:08:55;;;;;;;2.45;2.22;;;;;;;20.71;60.74;100271.72;5505207;22;20065;-95
2022/08/15 06:11:35;;;;;;;2.40;2.20;;;;;;;20.78;59.77;100274.78;5036228;28;20029;-95
2022/08/15 06:14:16;;;;;;;2.20;2.00;;;;;;;20.81;61.37;100283.34;5018485;28;20068;-88
2022/08/15 06:17:19;;;;;;;3.33;2.58;;;;;;;20.82;60.86;100278.91;5015652;28;20025;-88
2022/08/15 06:19:48;;;;;;;2.50;2.30;;;;;;;20.87;61.43;100282.09;5025688;28;20030;-89
2022/08/15 06:22:27;;;;;;;2.30;2.10;;;;;;;20.95;60.05;100278.91;5026036;28;20466;-90
2022/08/15 06:25:31;;;;;;;2.17;1.95;;;;;;;21.05;61.97;100280.00;5035047;28;20462;-90
2022/08/15 06:28:11;;;;;;;2.30;2.10;;;;;;;21.18;60.98;100282.63;5031497;28;20064;-89
2022/08/15 06:31:05;;;;;;;3.20;2.33;;;;;;;21.29;60.86;100276.59;5029495;28;20083;-86
2022/08/15 06:33:42;;;;;;;2.85;2.20;;;;;;;21.38;61.06;100281.25;5014792;28;20022;-87
2022/08/15 06:36:21;;;;;;;2.95;2.40;;;;;;;21.48;63.29;100275.31;5012562;28;20057;-87
2022/08/15 06:38:55;;;;;;;3.22;2.60;;;;;;;21.51;61.89;100272.44;5013630;28;20033;-86
2022/08/15 06:41:38;;;;;;;2.67;2.22;;;;;;;21.53;61.70;100278.47;5013814;28;20478;-89
2022/08/15 06:44:04;;;;;;;3.08;2.40;;;;;;;21.55;62.32;100280.06;5023240;28;20037;-87
2022/08/15 06:46:34;;;;;;;2.50;2.30;;;;;;;21.57;61.92;100274.66;5014889;28;20049;-88
2022/08/15 06:49:05;;;;;;;7.30;3.65;;;;;;;21.58;61.45;100282.47;5012459;28;20025;-84
2022/08/15 06:51:35;;;;;;;3.65;2.70;;;;;;;21.59;60.65;100280.72;5013372;28;20080;-87
2022/08/15 06:54:01;;;;;;;3.88;2.70;;;;;;;21.62;61.63;100291.03;5013404;28;20060;-88
2022/08/15 06:56:41;;;;;;;3.40;2.70;;;;;;;21.64;61.64;100289.13;5012483;28;20080;-86
2022/08/15 06:59:18;;;;;;;2.58;2.30;;;;;;;21.69;60.03;100300.25;5012588;28;20049;-87
2022/08/15 07:02:02;;;;;;;4.63;2.85;;;;;;;21.72;62.67;100294.75;5013068;28;20512;-88
2022/08/15 07:04:34;;;;;;;2.70;2.50;;;;;;;21.75;61.92;100291.03;5012427;28;20068;-87
2022/08/15 07:07:08;;;;;;;3.47;2.80;;;;;;;21.78;63.53;100287.31;5013094;28;20022;-89
2022/08/15 07:09:39;;;;;;;3.70;2.60;;;;;;;21.79;62.44;100284.56;5012111;28;20046;-87
2022/08/15 07:12:28;;;;;;;2.50;2.30;;;;;;;21.85;62.81;100272.72;5022716;28;20393;-87
2022/08/15 07:15:19;;;;;;;3.28;2.28;;;;;;;21.94;62.58;100268.56;5032177;28;20033;-86
2022/08/15 07:17:52;;;;;;;2.40;2.20;;;;;;;22.10;62.15;100277.09;5023434;28;20445;-87
2022/08/15 07:20:18;;;;;;;2.00;1.90;;;;;;;22.49;60.89;100284.84;5032941;28;20080;-86
2022/08/15 07:22:43;;;;;;;4.53;2.47;;;;;;;22.67;61.77;100283.47;5031128;28;20080;-89
2022/08/15 07:25:19;;;;;;;2.88;2.60;;;;;;;22.66;61.46;100280.94;5032263;28;20064;-89
2022/08/15 07:28:05;;;;;;;2.50;2.30;;;;;;;22.62;61.37;100277.69;5032584;28;20129;-86
2022/08/15 07:30:57;;;;;;;2.92;2.53;;;;;;;22.65;60.56;100271.31;5031670;28;20043;-87
2022/08/15 07:33:48;;;;;;;3.45;2.40;;;;;;;22.62;61.63;100272.41;5032650;28;20028;-86
2022/08/15 07:36:32;;;;;;;2.80;2.55;;;;;;;22.61;60.74;100278.66;5035447;28;20029;-86
2022/08/15 07:38:57;;;;;;;2.53;2.33;;;;;;;22.61;60.99;100273.38;5034695;28;20541;-86
2022/08/15 07:41:30;;;;;;;2.40;2.20;;;;;;;22.68;61.30;100271.94;5035177;28;20098;-88
2022/08/15 07:44:14;;;;;;;1.90;1.80;;;;;;;22.77;60.44;100277.47;5035888;28;20568;-88
2022/08/15 07:46:44;;;;;;;3.15;2.40;;;;;;;22.84;61.77;100281.34;5035562;28;20421;-86
2022/08/15 07:49:17;;;;;;;2.42;2.10;;;;;;;22.88;61.46;100281.97;5036084;28;20029;-86
2022/08/15 07:51:49;;;;;;;6.38;3.90;;;;;;;22.84;61.42;100289.28;5035458;28;20087;-88
2022/08/15 07:54:24;;;;;;;5.13;3.20;;;;;;;22.81;60.98;100298.28;5036607;28;20025;-87
2022/08/15 07:56:54;;;;;;;3.10;2.63;;;;;;;22.81;61.39;100290.34;5035427;28;20557;-88
2022/08/15 07:59:27;;;;;;;2.97;2.60;;;;;;;22.85;60.74;100303.34;5035607;28;20044;-88
2022/08/15 08:02:03;;;;;;;2.50;2.30;;;;;;;22.92;61.03;100300.13;5034838;28;20135;-88
2022/08/15 08:04:29;;;;;;;2.42;2.22;;;;;;;23.01;61.56;100295.09;5033925;28;20036;-87
2022/08/15 08:07:23;;;;;;;2.22;2.03;;;;;;;23.23;61.26;100296.97;5034788;28;20423;-87
2022/08/15 08:10:08;;;;;;;2.00;1.90;;;;;;;23.54;60.98;100299.84;5028035;28;20112;-87
2022/08/15 08:12:45;;;;;;;2.42;2.22;;;;;;;23.71;59.11;100298.50;5015288;28;20459;-88
2022/08/15 08:15:19;;;;;;;2.60;2.20;;;;;;;23.78;60.94;100299.69;5015601;28;20056;-87
2022/08/15 08:17:52;;;;;;;2.50;2.30;;;;;;;23.77;61.85;100305.97;5015792;28;20061;-87
2022/08/15 08:20:30;;;;;;;2.40;2.20;;;;;;;23.78;60.44;100302.34;5015078;28;20065;-87
2022/08/15 08:23:14;;;;;;;2.63;2.42;;;;;;;23.81;59.40;100304.75;5014919;28;20493;-87
2022/08/15 08:25:57;;;;;;;2.30;2.10;;;;;;;23.88;59.66;100311.25;5016004;28;20022;-86
2022/08/15 08:28:44;;;;;;;2.33;2.17;;;;;;;23.93;59.30;100304.75;5014721;28;20036;-87
2022/08/15 08:31:30;;;;;;;2.30;2.10;;;;;;;23.94;60.09;100304.59;5015123;28;20034;-86
2022/08/15 08:34:17;;;;;;;2.28;2.17;;;;;;;23.95;59.08;100302.81;5015606;28;20022;-87
2022/08/15 08:36:53;;;;;;;2.58;2.38;;;;;;;23.97;59.55;100306.22;5015456;28;20037;-87
2022/08/15 08:39:42;;;;;;;2.70;2.50;;;;;;;23.94;58.17;100306.44;5033736;28;20029;-86
2022/08/15 08:42:14;;;;;;;2.88;2.40;;;;;;;23.87;59.31;100298.97;5033972;28;20029;-85
2022/08/15 08:44:57;;;;;;;2.50;2.30;;;;;;;23.82;58.64;100303.81;5035151;28;20473;-86
2022/08/15 08:47:32;;;;;;;2.30;2.17;;;;;;;23.78;59.42;100305.00;5031633;28;20095;-86
2022/08/15 08:50:10;;;;;;;2.33;2.10;;;;;;;23.73;59.05;100308.03;5033228;28;20108;-85
2022/08/15 08:52:55;;;;;;;3.05;2.10;;;;;;;23.74;58.69;100309.72;5034775;28;20139;-85
2022/08/15 08:55:27;;;;;;;2.70;2.50;;;;;;;23.75;59.62;100307.91;5032892;28;20029;-86
2022/08/15 08:58:01;;;;;;;2.50;2.30;;;;;;;23.70;59.53;100304.78;5033453;28;20091;-84
2022/08/15 09:00:37;;;;;;;2.75;2.40;;;;;;;23.66;60.00;100308.63;5033800;28;20457;-84
2022/08/15 09:03:27;;;;;;;2.85;2.30;;;;;;;23.66;59.94;100312.13;5033296;28;20025;-91
2022/08/15 09:05:55;;;;;;;2.58;2.22;;;;;;;23.70;60.53;100315.38;5033739;28;20160;-90
2022/08/15 09:08:51;;;;;;;2.85;2.30;;;;;;;23.69;59.30;100318.97;5033552;28;20492;-85
2022/08/15 09:11:26;;;;;;;3.17;2.45;;;;;;;23.65;59.34;100318.38;5033881;28;20041;-85
2022/08/15 09:13:55;;;;;;;2.40;2.20;;;;;;;23.64;59.23;100318.53;5034429;28;20018;-85
2022/08/15 09:16:24;;;;;;;2.30;2.10;;;;;;;23.65;59.49;100322.81;5033533;28;20036;-85
2022/08/15 09:19:14;;;;;;;2.30;2.10;;;;;;;23.64;60.36;100318.53;5033950;28;20531;-85
2022/08/15 09:21:42;;;;;;;3.22;1.98;;;;;;;23.63;60.22;100324.78;5034195;28;20021;-84
2022/08/15 09:24:08;;;;;;;2.05;1.95;;;;;;;23.63;60.57;100320.31;5033197;28;20096;-84
2022/08/15 09:26:47;;;;;;;2.30;2.10;;;;;;;23.63;60.19;100324.78;5034141;28;20025;-85
2022/08/15 09:29:27;;;;;;;2.67;2.10;;;;;;;23.61;60.72;100327.53;5033975;28;20029;-88
2022/08/15 09:31:58;;;;;;;1.90;1.80;;;;;;;23.65;60.21;100328.13;5032949;28;20449;-85
2022/08/15 09:34:46;;;;;;;2.17;1.98;;;;;;;23.69;59.78;100327.78;5033884;28;20068;-86
2022/08/15 09:37:32;;;;;;;2.67;2.28;;;;;;;23.72;59.83;100324.03;5031437;28;20104;-86
2022/08/15 09:40:38;;;;;;;2.20;2.10;;;;;;;23.78;59.97;100328.84;5033807;28;20033;-86
2022/08/15 09:43:32;;;;;;;2.97;2.30;;;;;;;23.83;60.21;100329.34;5033352;28;20389;-86
2022/08/15 09:46:09;;;;;;;3.03;2.60;;;;;;;23.87;60.40;100320.16;5032899;28;20029;-84
2022/08/15 09:48:45;;;;;;;2.58;2.30;;;;;;;23.94;61.40;100317.03;5034120;28;20101;-85
2022/08/15 09:51:25;;;;;;;2.70;2.40;;;;;;;24.04;60.10;100318.00;5032579;28;20087;-86
2022/08/15 09:54:07;;;;;;;2.80;2.50;;;;;;;24.16;60.24;100316.16;5031528;28;20036;-84
2022/08/15 09:56:37;;;;;;;3.47;2.78;;;;;;;24.29;60.73;100314.19;5033306;28;20033;-86
2022/08/15 09:59:19;;;;;;;3.40;2.92;;;;;;;24.48;59.61;100318.00;5032361;28;20071;-87
2022/08/15 10:01:58;;;;;;;5.40;3.00;;;;;;;24.73;60.53;100331.88;5033098;28;20477;-88
2022/08/15 10:04:40;;;;;;;4.38;3.20;;;;;;;24.89;60.67;100336.75;5033716;28;20021;-87
2022/08/15 10:07:05;;;;;;;5.65;3.97;;;;;;;24.95;59.05;100328.28;5031329;28;20021;-87
2022/08/15 10:09:33;;;;;;;3.93;3.10;;;;;;;24.97;59.20;100329.00;5033209;28;20042;-89
2022/08/15 10:12:18;;;;;;;4.35;3.63;;;;;;;24.95;58.24;100323.81;5032864;28;20030;-86
2022/08/15 10:14:47;;;;;;;4.15;3.40;;;;;;;24.90;58.42;100325.16;5033552;28;20056;-87
2022/08/15 10:17:37;;;;;;;7.30;4.45;;;;;;;24.79;58.36;100326.91;5033182;28;20436;-88
2022/08/15 10:20:14;;;;;;;4.20;3.40;;;;;;;24.73;59.08;100327.44;5032497;28;20029;-89
2022/08/15 10:22:59;;;;;;;6.30;4.30;;;;;;;24.65;59.58;100330.69;5033368;28;20466;-89
2022/08/15 10:25:35;;;;;;;7.03;4.30;;;;;;;24.62;58.81;100328.28;5033153;28;20112;-91
2022/08/15 10:28:11;;;;;;;7.72;4.60;;;;;;;24.63;58.26;100332.63;5032304;28;20029;-88
2022/08/15 10:30:46;;;;;;;5.43;3.60;;;;;;;24.66;60.18;100327.06;5029719;28;20572;-88
2022/08/15 10:33:33;;;;;;;5.68;3.88;;;;;;;24.70;58.37;100329.50;5013629;28;20376;-87
2022/08/15 10:36:13;;;;;;;6.13;4.05;;;;;;;24.70;58.28;100333.00;5032874;28;20117;-87
2022/08/15 10:39:16;;;;;;;5.05;3.55;;;;;;;24.75;59.02;100336.13;5033271;28;20075;-89
2022/08/15 10:42:19;;;;;;;4.32;3.40;;;;;;;24.85;58.64;100332.69;5032333;28;20058;-87
2022/08/15 10:45:02;;;;;;;3.20;2.90;;;;;;;24.95;58.55;100333.59;5033067;28;20439;-87
2022/08/15 10:47:47;;;;;;;3.83;3.00;;;;;;;25.02;58.88;100328.59;5032177;28;20019;-88
2022/08/15 10:50:47;;;;;;;5.60;3.78;;;;;;;24.96;58.26;100330.81;5033036;28;20029;-91
2022/08/15 10:53:27;;;;;;;4.00;3.30;;;;;;;24.91;59.28;100340.13;5032957;28;20080;-88
2022/08/15 10:56:06;;;;;;;4.05;3.20;;;;;;;24.94;59.00;100343.34;5031695;28;20097;-87
2022/08/15 10:58:32;;;;;;;4.50;3.00;;;;;;;24.96;58.86;100335.28;5030962;28;20033;-87
2022/08/15 11:01:22;;;;;;;4.68;3.00;;;;;;;24.92;58.88;100344.47;5032361;28;20024;-87
2022/08/15 11:04:01;;;;;;;5.85;3.30;;;;;;;24.80;59.33;100341.88;5019285;28;20100;-89
2022/08/15 11:06:26;;;;;;;3.83;3.40;;;;;;;24.69;58.41;100346.41;5013262;28;20037;-90
2022/08/15 11:08:53;;;;;;;3.77;3.00;;;;;;;24.61;59.37;100341.69;5013486;28;20418;-86
2022/08/15 11:11:22;;;;;;;4.68;3.20;;;;;;;24.52;58.56;100337.97;5027514;28;20030;-87
2022/08/15 11:13:56;;;;;;;4.45;2.83;;;;;;;24.45;58.41;100342.94;5036588;28;20496;-88
2022/08/15 11:16:40;;;;;;;3.10;2.80;;;;;;;24.45;58.84;100345.59;5036186;28;20033;-88
2022/08/15 11:19:18;;;;;;;2.80;2.60;;;;;;;24.42;59.01;100342.34;5025911;28;20034;-86
2022/08/15 11:22:05;;;;;;;3.28;2.90;;;;;;;24.40;60.05;100344.28;5017080;28;20025;-88
2022/08/15 11:24:39;;;;;;;2.65;2.45;;;;;;;24.41;58.73;100332.72;5015963;28;20022;-86
2022/08/15 11:27:10;;;;;;;3.60;2.60;;;;;;;24.41;59.03;100338.88;5016363;28;20026;-86
2022/08/15 11:29:36;;;;;;;3.28;2.83;;;;;;;24.40;59.03;100344.28;5016203;28;20025;-86
2022/08/15 11:32:02;;;;;;;3.45;3.00;;;;;;;24.38;59.21;100344.44;5016142;28;20029;-86
2022/08/15 11:34:33;;;;;;;4.10;2.87;;;;;;;24.38;59.35;100344.44;5016438;28;20355;-87
2022/08/15 11:37:08;;;;;;;3.50;2.67;;;;;;;24.42;58.67;100347.66;5015296;28;20307;-87
2022/08/15 11:39:39;;;;;;;2.63;2.42;;;;;;;24.48;58.85;100344.53;5016431;28;20018;-87
2022/08/15 11:42:09;;;;;;;3.53;3.00;;;;;;;24.56;58.28;100346.53;5016179;28;20026;-86
2022/08/15 11:44:52;;;;;;;3.42;2.80;;;;;;;24.59;59.42;100348.94;5015715;28;20032;-86
2022/08/15 11:47:18;;;;;;;3.55;2.72;;;;;;;24.70;59.00;100348.09;5016586;28;20022;-86
2022/08/15 11:49:52;;;;;;;5.65;3.03;;;;;;;24.78;59.06;100349.09;5016368;28;20022;-86
2022/08/15 11:52:31;;;;;;;2.72;2.50;;;;;;;24.88;59.00;100356.31;5015631;28;20018;-86
2022/08/15 11:55:12;;;;;;;4.43;3.20;;;;;;;24.98;60.03;100354.56;5015613;28;20076;-86
2022/08/15 11:57:44;;;;;;;3.22;2.92;;;;;;;25.09;60.01;100348.34;5014784;28;20532;-86
2022/08/15 12:00:22;;;;;;;3.20;2.90;;;;;;;25.23;57.75;100350.69;5015434;28;20044;-84
2022/08/15 12:02:48;;;;;;;5.43;3.10;;;;;;;25.33;58.25;100347.22;5015973;28;20053;-85